sensor_id;sensor_type;location;lat;lon;timestamp;P1;durP1;ratioP1;P2;durP2;ratioP2
45522;SDS011;31254;51.680;5.394;2023-03-01T00:01:39;13.73;;;6.03;;
45522;SDS011;31254;51.680;5.394;2023-03-01T00:04:08;9.43;;;5.70;;
45522;SDS011;31254;51.680;5.394;2023-03-01T00:06:37;7.90;;;5.03;;
45522;SDS011;31254;51.680;5.394;2023-03-01T00:09:04;9.57;;;5.23;;
45522;SDS011;31254;51.680;5.394;2023-03-01T00:11:39;9.77;;;5.73;;
45522;SDS011;31254;51.680;5.394;2023-03-01T00:14:05;12.50;;;5.67;;
45522;SDS011;31254;51.680;5.394;2023-03-01T00:16:40;10.90;;;5.63;;
45522;SDS011;31254;51.680;5.394;2023-03-01T00:19:11;10.23;;;5.70;;
45522;SDS011;31254;51.680;5.394;2023-03-01T00:21:41;10.53;;;5.90;;
45522;SDS011;31254;51.680;5.394;2023-03-01T00:24:09;9.57;;;6.00;;
45522;SDS011;31254;51.680;5.394;2023-03-01T00:26:38;11.47;;;5.77;;
45522;SDS011;31254;51.680;5.394;2023-03-01T00:29:04;9.17;;;5.70;;
45522;SDS011;31254;51.680;5.394;2023-03-01T00:31:33;10.63;;;5.67;;
45522;SDS011;31254;51.680;5.394;2023-03-01T00:34:03;8.70;;;5.63;;
45522;SDS011;31254;51.680;5.394;2023-03-01T00:36:32;10.97;;;6.03;;
45522;SDS011;31254;51.680;5.394;2023-03-01T00:39:01;14.03;;;5.87;;
45522;SDS011;31254;51.680;5.394;2023-03-01T00:41:30;10.93;;;5.90;;
45522;SDS011;31254;51.680;5.394;2023-03-01T00:43:57;9.83;;;5.97;;
45522;SDS011;31254;51.680;5.394;2023-03-01T00:46:26;13.57;;;6.90;;
45522;SDS011;31254;51.680;5.394;2023-03-01T00:48:59;10.60;;;6.13;;
45522;SDS011;31254;51.680;5.394;2023-03-01T00:51:28;10.60;;;6.20;;
45522;SDS011;31254;51.680;5.394;2023-03-01T00:53:56;12.07;;;5.90;;
45522;SDS011;31254;51.680;5.394;2023-03-01T00:56:29;9.93;;;6.10;;
45522;SDS011;31254;51.680;5.394;2023-03-01T00:58:57;9.00;;;5.60;;
45522;SDS011;31254;51.680;5.394;2023-03-01T01:01:24;11.20;;;5.90;;
45522;SDS011;31254;51.680;5.394;2023-03-01T01:03:58;12.37;;;6.07;;
45522;SDS011;31254;51.680;5.394;2023-03-01T01:06:29;9.53;;;5.77;;
45522;SDS011;31254;51.680;5.394;2023-03-01T01:08:59;11.23;;;6.30;;
45522;SDS011;31254;51.680;5.394;2023-03-01T01:11:29;10.53;;;5.73;;
45522;SDS011;31254;51.680;5.394;2023-03-01T01:13:56;9.90;;;5.83;;
45522;SDS011;31254;51.680;5.394;2023-03-01T01:16:24;11.30;;;6.43;;
45522;SDS011;31254;51.680;5.394;2023-03-01T01:18:56;11.13;;;5.87;;
45522;SDS011;31254;51.680;5.394;2023-03-01T01:21:23;8.70;;;5.67;;
45522;SDS011;31254;51.680;5.394;2023-03-01T01:23:51;10.03;;;5.33;;
45522;SDS011;31254;51.680;5.394;2023-03-01T01:26:22;11.87;;;5.80;;
45522;SDS011;31254;51.680;5.394;2023-03-01T01:28:51;9.07;;;5.47;;
45522;SDS011;31254;51.680;5.394;2023-03-01T01:31:22;10.80;;;6.47;;
45522;SDS011;31254;51.680;5.394;2023-03-01T01:33:50;9.93;;;5.90;;
45522;SDS011;31254;51.680;5.394;2023-03-01T01:36:22;9.97;;;5.73;;
45522;SDS011;31254;51.680;5.394;2023-03-01T01:38:50;14.30;;;6.27;;
45522;SDS011;31254;51.680;5.394;2023-03-01T01:41:23;8.70;;;5.77;;
45522;SDS011;31254;51.680;5.394;2023-03-01T01:46:37;12.20;;;5.23;;
45522;SDS011;31254;51.680;5.394;2023-03-01T01:49:23;9.07;;;5.27;;
45522;SDS011;31254;51.680;5.394;2023-03-01T01:52:00;10.00;;;5.80;;
45522;SDS011;31254;51.680;5.394;2023-03-01T01:54:38;10.37;;;5.60;;
45522;SDS011;31254;51.680;5.394;2023-03-01T01:57:10;11.00;;;5.37;;
45522;SDS011;31254;51.680;5.394;2023-03-01T01:59:43;10.77;;;5.67;;
45522;SDS011;31254;51.680;5.394;2023-03-01T02:02:15;8.63;;;4.97;;
45522;SDS011;31254;51.680;5.394;2023-03-01T02:04:42;9.87;;;5.57;;
45522;SDS011;31254;51.680;5.394;2023-03-01T02:07:19;12.53;;;5.10;;
45522;SDS011;31254;51.680;5.394;2023-03-01T02:09:49;12.40;;;5.93;;
45522;SDS011;31254;51.680;5.394;2023-03-01T02:12:21;9.93;;;5.40;;
45522;SDS011;31254;51.680;5.394;2023-03-01T02:14:50;10.13;;;5.40;;
45522;SDS011;31254;51.680;5.394;2023-03-01T02:17:16;10.33;;;5.70;;
45522;SDS011;31254;51.680;5.394;2023-03-01T02:22:51;6.37;;;3.67;;
45522;SDS011;31254;51.680;5.394;2023-03-01T02:28:05;9.37;;;5.37;;
45522;SDS011;31254;51.680;5.394;2023-03-01T02:30:37;12.93;;;5.87;;
45522;SDS011;31254;51.680;5.394;2023-03-01T02:33:25;10.27;;;5.77;;
45522;SDS011;31254;51.680;5.394;2023-03-01T02:35:53;10.80;;;5.73;;
45522;SDS011;31254;51.680;5.394;2023-03-01T02:38:21;9.93;;;5.80;;
45522;SDS011;31254;51.680;5.394;2023-03-01T02:40:52;9.37;;;5.63;;
45522;SDS011;31254;51.680;5.394;2023-03-01T02:43:21;9.77;;;5.77;;
45522;SDS011;31254;51.680;5.394;2023-03-01T02:45:56;10.10;;;5.87;;
45522;SDS011;31254;51.680;5.394;2023-03-01T02:48:27;10.67;;;5.93;;
45522;SDS011;31254;51.680;5.394;2023-03-01T02:56:38;12.57;;;6.00;;
45522;SDS011;31254;51.680;5.394;2023-03-01T02:59:05;10.00;;;5.70;;
45522;SDS011;31254;51.680;5.394;2023-03-01T03:01:32;10.70;;;6.17;;
45522;SDS011;31254;51.680;5.394;2023-03-01T03:04:09;10.17;;;5.73;;
45522;SDS011;31254;51.680;5.394;2023-03-01T03:06:52;11.20;;;6.10;;
45522;SDS011;31254;51.680;5.394;2023-03-01T03:09:18;9.73;;;5.77;;
45522;SDS011;31254;51.680;5.394;2023-03-01T03:11:45;13.10;;;6.27;;
45522;SDS011;31254;51.680;5.394;2023-03-01T03:14:13;12.43;;;6.40;;
45522;SDS011;31254;51.680;5.394;2023-03-01T03:16:43;16.30;;;6.63;;
45522;SDS011;31254;51.680;5.394;2023-03-01T03:19:11;9.63;;;5.97;;
45522;SDS011;31254;51.680;5.394;2023-03-01T03:21:41;12.03;;;6.90;;
45522;SDS011;31254;51.680;5.394;2023-03-01T03:24:07;13.47;;;6.37;;
45522;SDS011;31254;51.680;5.394;2023-03-01T03:26:34;11.90;;;6.60;;
45522;SDS011;31254;51.680;5.394;2023-03-01T03:29:01;9.97;;;6.23;;
45522;SDS011;31254;51.680;5.394;2023-03-01T03:31:27;10.07;;;6.33;;
45522;SDS011;31254;51.680;5.394;2023-03-01T03:33:54;11.17;;;6.80;;
45522;SDS011;31254;51.680;5.394;2023-03-01T03:36:25;9.87;;;6.33;;
45522;SDS011;31254;51.680;5.394;2023-03-01T03:38:51;9.23;;;5.87;;
45522;SDS011;31254;51.680;5.394;2023-03-01T03:41:18;10.70;;;5.90;;
45522;SDS011;31254;51.680;5.394;2023-03-01T03:43:45;11.90;;;6.73;;
45522;SDS011;31254;51.680;5.394;2023-03-01T03:46:12;10.60;;;6.07;;
45522;SDS011;31254;51.680;5.394;2023-03-01T03:48:43;10.97;;;5.90;;
45522;SDS011;31254;51.680;5.394;2023-03-01T03:51:11;10.23;;;5.93;;
45522;SDS011;31254;51.680;5.394;2023-03-01T03:53:39;10.13;;;6.20;;
45522;SDS011;31254;51.680;5.394;2023-03-01T03:56:09;13.87;;;6.07;;
45522;SDS011;31254;51.680;5.394;2023-03-01T03:58:36;15.57;;;6.87;;
45522;SDS011;31254;51.680;5.394;2023-03-01T04:01:03;9.27;;;6.13;;
45522;SDS011;31254;51.680;5.394;2023-03-01T04:03:32;10.10;;;6.03;;
45522;SDS011;31254;51.680;5.394;2023-03-01T04:06:01;11.60;;;6.33;;
45522;SDS011;31254;51.680;5.394;2023-03-01T04:08:30;13.40;;;7.03;;
45522;SDS011;31254;51.680;5.394;2023-03-01T04:11:01;19.03;;;6.97;;
45522;SDS011;31254;51.680;5.394;2023-03-01T04:13:51;10.77;;;6.17;;
45522;SDS011;31254;51.680;5.394;2023-03-01T04:16:19;13.10;;;6.87;;
45522;SDS011;31254;51.680;5.394;2023-03-01T04:18:46;14.53;;;6.47;;
45522;SDS011;31254;51.680;5.394;2023-03-01T04:21:12;13.93;;;7.33;;
45522;SDS011;31254;51.680;5.394;2023-03-01T04:23:39;12.30;;;6.47;;
45522;SDS011;31254;51.680;5.394;2023-03-01T04:26:07;13.67;;;6.33;;
45522;SDS011;31254;51.680;5.394;2023-03-01T04:31:03;11.97;;;6.97;;
45522;SDS011;31254;51.680;5.394;2023-03-01T04:33:43;15.87;;;7.47;;
45522;SDS011;31254;51.680;5.394;2023-03-01T04:36:14;14.90;;;8.17;;
45522;SDS011;31254;51.680;5.394;2023-03-01T04:38:44;20.63;;;9.67;;
45522;SDS011;31254;51.680;5.394;2023-03-01T04:41:14;18.97;;;9.17;;
45522;SDS011;31254;51.680;5.394;2023-03-01T04:43:43;19.33;;;9.50;;
45522;SDS011;31254;51.680;5.394;2023-03-01T04:46:13;18.20;;;10.03;;
45522;SDS011;31254;51.680;5.394;2023-03-01T04:48:44;16.80;;;9.23;;
45522;SDS011;31254;51.680;5.394;2023-03-01T04:51:14;14.33;;;8.97;;
45522;SDS011;31254;51.680;5.394;2023-03-01T04:53:44;16.67;;;9.20;;
45522;SDS011;31254;51.680;5.394;2023-03-01T04:56:11;17.67;;;9.27;;
45522;SDS011;31254;51.680;5.394;2023-03-01T04:58:40;15.47;;;8.20;;
45522;SDS011;31254;51.680;5.394;2023-03-01T05:01:08;13.73;;;7.87;;
45522;SDS011;31254;51.680;5.394;2023-03-01T05:03:45;13.67;;;7.73;;
45522;SDS011;31254;51.680;5.394;2023-03-01T05:06:14;13.00;;;8.37;;
45522;SDS011;31254;51.680;5.394;2023-03-01T05:08:41;15.77;;;7.97;;
45522;SDS011;31254;51.680;5.394;2023-03-01T05:11:09;13.20;;;6.97;;
45522;SDS011;31254;51.680;5.394;2023-03-01T05:13:37;11.50;;;7.57;;
45522;SDS011;31254;51.680;5.394;2023-03-01T05:16:06;14.20;;;7.53;;
45522;SDS011;31254;51.680;5.394;2023-03-01T05:18:37;12.20;;;6.57;;
45522;SDS011;31254;51.680;5.394;2023-03-01T05:21:08;10.70;;;6.73;;
45522;SDS011;31254;51.680;5.394;2023-03-01T05:23:37;12.57;;;6.70;;
45522;SDS011;31254;51.680;5.394;2023-03-01T05:26:05;10.17;;;6.00;;
45522;SDS011;31254;51.680;5.394;2023-03-01T05:28:47;12.30;;;5.47;;
45522;SDS011;31254;51.680;5.394;2023-03-01T05:31:16;13.80;;;5.67;;
45522;SDS011;31254;51.680;5.394;2023-03-01T05:33:42;10.50;;;6.57;;
45522;SDS011;31254;51.680;5.394;2023-03-01T05:36:14;11.27;;;5.57;;
45522;SDS011;31254;51.680;5.394;2023-03-01T05:38:43;11.17;;;5.90;;
45522;SDS011;31254;51.680;5.394;2023-03-01T05:41:13;9.90;;;5.33;;
45522;SDS011;31254;51.680;5.394;2023-03-01T05:43:43;9.63;;;5.77;;
45522;SDS011;31254;51.680;5.394;2023-03-01T05:46:11;11.03;;;6.23;;
45522;SDS011;31254;51.680;5.394;2023-03-01T05:48:39;9.37;;;5.93;;
45522;SDS011;31254;51.680;5.394;2023-03-01T05:51:06;9.73;;;5.70;;
45522;SDS011;31254;51.680;5.394;2023-03-01T05:53:36;11.03;;;6.27;;
45522;SDS011;31254;51.680;5.394;2023-03-01T05:56:03;11.37;;;6.37;;
45522;SDS011;31254;51.680;5.394;2023-03-01T05:58:30;10.47;;;5.97;;
45522;SDS011;31254;51.680;5.394;2023-03-01T06:00:57;9.33;;;5.57;;
45522;SDS011;31254;51.680;5.394;2023-03-01T06:03:26;11.03;;;6.07;;
45522;SDS011;31254;51.680;5.394;2023-03-01T06:05:56;12.47;;;6.33;;
45522;SDS011;31254;51.680;5.394;2023-03-01T06:08:25;16.30;;;6.07;;
45522;SDS011;31254;51.680;5.394;2023-03-01T06:10:56;10.27;;;6.40;;
45522;SDS011;31254;51.680;5.394;2023-03-01T06:13:22;11.17;;;5.97;;
45522;SDS011;31254;51.680;5.394;2023-03-01T06:15:49;14.27;;;6.50;;
45522;SDS011;31254;51.680;5.394;2023-03-01T06:18:16;10.30;;;6.33;;
45522;SDS011;31254;51.680;5.394;2023-03-01T06:20:43;10.83;;;6.37;;
45522;SDS011;31254;51.680;5.394;2023-03-01T06:23:09;11.30;;;6.70;;
45522;SDS011;31254;51.680;5.394;2023-03-01T06:25:38;12.57;;;6.60;;
45522;SDS011;31254;51.680;5.394;2023-03-01T06:28:05;11.80;;;6.50;;
45522;SDS011;31254;51.680;5.394;2023-03-01T06:30:31;9.03;;;6.10;;
45522;SDS011;31254;51.680;5.394;2023-03-01T06:33:01;14.57;;;6.27;;
45522;SDS011;31254;51.680;5.394;2023-03-01T06:35:29;10.43;;;6.30;;
45522;SDS011;31254;51.680;5.394;2023-03-01T06:37:56;8.97;;;5.87;;
45522;SDS011;31254;51.680;5.394;2023-03-01T06:40:24;10.13;;;6.47;;
45522;SDS011;31254;51.680;5.394;2023-03-01T06:42:54;11.37;;;6.43;;
45522;SDS011;31254;51.680;5.394;2023-03-01T06:45:21;10.77;;;6.37;;
45522;SDS011;31254;51.680;5.394;2023-03-01T06:47:47;12.00;;;6.77;;
45522;SDS011;31254;51.680;5.394;2023-03-01T06:50:15;13.67;;;6.53;;
45522;SDS011;31254;51.680;5.394;2023-03-01T06:52:44;12.70;;;7.23;;
45522;SDS011;31254;51.680;5.394;2023-03-01T06:55:12;11.33;;;6.13;;
45522;SDS011;31254;51.680;5.394;2023-03-01T06:57:39;12.43;;;6.30;;
45522;SDS011;31254;51.680;5.394;2023-03-01T07:00:06;9.20;;;6.17;;
45522;SDS011;31254;51.680;5.394;2023-03-01T07:02:34;8.43;;;5.50;;
45522;SDS011;31254;51.680;5.394;2023-03-01T07:05:00;12.43;;;6.40;;
45522;SDS011;31254;51.680;5.394;2023-03-01T07:07:27;15.03;;;6.43;;
45522;SDS011;31254;51.680;5.394;2023-03-01T07:09:57;13.20;;;6.40;;
45522;SDS011;31254;51.680;5.394;2023-03-01T07:12:26;10.50;;;6.07;;
45522;SDS011;31254;51.680;5.394;2023-03-01T07:14:52;11.87;;;7.13;;
45522;SDS011;31254;51.680;5.394;2023-03-01T07:17:19;9.77;;;6.17;;
45522;SDS011;31254;51.680;5.394;2023-03-01T07:19:46;15.60;;;6.03;;
45522;SDS011;31254;51.680;5.394;2023-03-01T07:22:13;11.03;;;6.43;;
45522;SDS011;31254;51.680;5.394;2023-03-01T07:24:40;9.93;;;6.13;;
45522;SDS011;31254;51.680;5.394;2023-03-01T07:27:10;18.83;;;7.07;;
45522;SDS011;31254;51.680;5.394;2023-03-01T07:29:37;19.60;;;6.43;;
45522;SDS011;31254;51.680;5.394;2023-03-01T07:32:05;10.47;;;6.10;;
45522;SDS011;31254;51.680;5.394;2023-03-01T07:34:32;19.93;;;7.23;;
45522;SDS011;31254;51.680;5.394;2023-03-01T07:36:59;11.40;;;6.57;;
45522;SDS011;31254;51.680;5.394;2023-03-01T07:39:26;13.50;;;6.73;;
45522;SDS011;31254;51.680;5.394;2023-03-01T07:41:52;11.17;;;5.83;;
45522;SDS011;31254;51.680;5.394;2023-03-01T07:44:24;10.03;;;5.90;;
45522;SDS011;31254;51.680;5.394;2023-03-01T07:46:50;11.67;;;5.37;;
45522;SDS011;31254;51.680;5.394;2023-03-01T07:49:22;12.87;;;6.60;;
45522;SDS011;31254;51.680;5.394;2023-03-01T07:51:49;7.27;;;5.17;;
45522;SDS011;31254;51.680;5.394;2023-03-01T07:54:18;11.40;;;6.30;;
45522;SDS011;31254;51.680;5.394;2023-03-01T07:56:44;9.93;;;5.87;;
45522;SDS011;31254;51.680;5.394;2023-03-01T07:59:11;11.77;;;7.25;;
45522;SDS011;31254;51.680;5.394;2023-03-01T08:01:38;9.93;;;6.10;;
45522;SDS011;31254;51.680;5.394;2023-03-01T08:04:07;12.30;;;6.83;;
45522;SDS011;31254;51.680;5.394;2023-03-01T08:06:36;13.97;;;5.90;;
45522;SDS011;31254;51.680;5.394;2023-03-01T08:09:09;12.67;;;6.20;;
45522;SDS011;31254;51.680;5.394;2023-03-01T08:11:35;10.13;;;6.00;;
45522;SDS011;31254;51.680;5.394;2023-03-01T08:14:02;10.33;;;6.17;;
45522;SDS011;31254;51.680;5.394;2023-03-01T08:16:29;13.33;;;7.27;;
45522;SDS011;31254;51.680;5.394;2023-03-01T08:19:03;9.60;;;5.40;;
45522;SDS011;31254;51.680;5.394;2023-03-01T08:21:33;15.37;;;6.17;;
45522;SDS011;31254;51.680;5.394;2023-03-01T08:24:03;10.17;;;6.20;;
45522;SDS011;31254;51.680;5.394;2023-03-01T08:26:36;15.53;;;5.83;;
45522;SDS011;31254;51.680;5.394;2023-03-01T08:29:03;14.73;;;6.27;;
45522;SDS011;31254;51.680;5.394;2023-03-01T08:31:33;13.73;;;6.33;;
45522;SDS011;31254;51.680;5.394;2023-03-01T08:34:06;10.13;;;5.00;;
45522;SDS011;31254;51.680;5.394;2023-03-01T08:36:38;9.93;;;6.50;;
45522;SDS011;31254;51.680;5.394;2023-03-01T08:39:12;9.70;;;5.83;;
45522;SDS011;31254;51.680;5.394;2023-03-01T08:41:41;11.60;;;6.57;;
45522;SDS011;31254;51.680;5.394;2023-03-01T08:44:09;12.03;;;5.77;;
45522;SDS011;31254;51.680;5.394;2023-03-01T08:46:38;11.73;;;6.10;;
45522;SDS011;31254;51.680;5.394;2023-03-01T08:49:08;11.63;;;5.43;;
45522;SDS011;31254;51.680;5.394;2023-03-01T08:51:39;10.77;;;6.27;;
45522;SDS011;31254;51.680;5.394;2023-03-01T08:54:07;8.20;;;5.43;;
45522;SDS011;31254;51.680;5.394;2023-03-01T08:56:38;10.90;;;4.30;;
45522;SDS011;31254;51.680;5.394;2023-03-01T08:59:04;14.43;;;6.50;;
45522;SDS011;31254;51.680;5.394;2023-03-01T09:01:31;13.87;;;4.83;;
45522;SDS011;31254;51.680;5.394;2023-03-01T09:03:59;10.30;;;5.93;;
45522;SDS011;31254;51.680;5.394;2023-03-01T09:06:25;13.30;;;6.00;;
45522;SDS011;31254;51.680;5.394;2023-03-01T09:08:53;11.37;;;5.60;;
45522;SDS011;31254;51.680;5.394;2023-03-01T09:11:21;9.70;;;5.87;;
45522;SDS011;31254;51.680;5.394;2023-03-01T09:13:49;9.90;;;6.27;;
45522;SDS011;31254;51.680;5.394;2023-03-01T09:16:19;11.73;;;5.80;;
45522;SDS011;31254;51.680;5.394;2023-03-01T09:18:51;11.13;;;5.20;;
45522;SDS011;31254;51.680;5.394;2023-03-01T09:21:21;12.87;;;5.17;;
45522;SDS011;31254;51.680;5.394;2023-03-01T09:24:06;11.70;;;5.40;;
45522;SDS011;31254;51.680;5.394;2023-03-01T09:26:40;10.77;;;5.40;;
45522;SDS011;31254;51.680;5.394;2023-03-01T09:29:16;12.20;;;4.67;;
45522;SDS011;31254;51.680;5.394;2023-03-01T09:31:44;11.03;;;5.73;;
45522;SDS011;31254;51.680;5.394;2023-03-01T09:34:11;10.73;;;5.40;;
45522;SDS011;31254;51.680;5.394;2023-03-01T09:36:42;11.47;;;4.93;;
45522;SDS011;31254;51.680;5.394;2023-03-01T09:39:12;8.30;;;5.37;;
45522;SDS011;31254;51.680;5.394;2023-03-01T09:46:57;13.70;;;5.03;;
45522;SDS011;31254;51.680;5.394;2023-03-01T09:49:29;9.30;;;6.07;;
45522;SDS011;31254;51.680;5.394;2023-03-01T09:55:09;10.00;;;4.90;;
45522;SDS011;31254;51.680;5.394;2023-03-01T09:57:47;9.90;;;4.80;;
45522;SDS011;31254;51.680;5.394;2023-03-01T10:05:31;10.20;;;5.10;;
45522;SDS011;31254;51.680;5.394;2023-03-01T10:08:06;7.17;;;4.73;;
45522;SDS011;31254;51.680;5.394;2023-03-01T10:10:49;12.50;;;4.83;;
45522;SDS011;31254;51.680;5.394;2023-03-01T10:13:25;10.40;;;5.83;;
45522;SDS011;31254;51.680;5.394;2023-03-01T10:16:01;11.30;;;4.93;;
45522;SDS011;31254;51.680;5.394;2023-03-01T10:18:35;7.27;;;5.00;;
45522;SDS011;31254;51.680;5.394;2023-03-01T10:23:42;7.77;;;4.80;;
45522;SDS011;31254;51.680;5.394;2023-03-01T10:26:22;9.43;;;4.77;;
45522;SDS011;31254;51.680;5.394;2023-03-01T10:28:59;9.10;;;5.27;;
45522;SDS011;31254;51.680;5.394;2023-03-01T10:31:38;7.77;;;3.93;;
45522;SDS011;31254;51.680;5.394;2023-03-01T10:34:13;9.20;;;4.87;;
45522;SDS011;31254;51.680;5.394;2023-03-01T10:36:40;6.83;;;4.63;;
45522;SDS011;31254;51.680;5.394;2023-03-01T10:39:13;7.60;;;3.90;;
45522;SDS011;31254;51.680;5.394;2023-03-01T10:44:49;8.53;;;4.70;;
45522;SDS011;31254;51.680;5.394;2023-03-01T10:47:18;12.43;;;3.97;;
45522;SDS011;31254;51.680;5.394;2023-03-01T10:52:25;8.17;;;4.23;;
45522;SDS011;31254;51.680;5.394;2023-03-01T10:57:44;8.83;;;4.50;;
45522;SDS011;31254;51.680;5.394;2023-03-01T11:00:25;7.53;;;4.13;;
45522;SDS011;31254;51.680;5.394;2023-03-01T11:05:25;8.03;;;4.80;;
45522;SDS011;31254;51.680;5.394;2023-03-01T11:07:55;7.10;;;4.23;;
45522;SDS011;31254;51.680;5.394;2023-03-01T11:10:24;9.00;;;4.53;;
45522;SDS011;31254;51.680;5.394;2023-03-01T11:12:53;12.53;;;4.87;;
45522;SDS011;31254;51.680;5.394;2023-03-01T11:15:34;8.80;;;5.40;;
45522;SDS011;31254;51.680;5.394;2023-03-01T11:18:01;7.20;;;4.57;;
45522;SDS011;31254;51.680;5.394;2023-03-01T11:20:40;7.10;;;4.73;;
45522;SDS011;31254;51.680;5.394;2023-03-01T11:23:13;7.40;;;4.50;;
45522;SDS011;31254;51.680;5.394;2023-03-01T11:25:42;9.20;;;5.43;;
45522;SDS011;31254;51.680;5.394;2023-03-01T11:28:16;9.80;;;5.57;;
45522;SDS011;31254;51.680;5.394;2023-03-01T11:33:49;9.77;;;5.90;;
45522;SDS011;31254;51.680;5.394;2023-03-01T11:39:28;9.80;;;5.35;;
45522;SDS011;31254;51.680;5.394;2023-03-01T11:42:05;6.87;;;3.83;;
45522;SDS011;31254;51.680;5.394;2023-03-01T11:44:45;15.30;;;5.93;;
45522;SDS011;31254;51.680;5.394;2023-03-01T11:55:18;12.05;;;5.50;;
45522;SDS011;31254;51.680;5.394;2023-03-01T12:20:19;7.60;;;5.50;;
45522;SDS011;31254;51.680;5.394;2023-03-01T12:23:03;8.55;;;5.03;;
45522;SDS011;31254;51.680;5.394;2023-03-01T12:25:48;8.70;;;4.15;;
45522;SDS011;31254;51.680;5.394;2023-03-01T12:31:05;7.30;;;4.22;;
45522;SDS011;31254;51.680;5.394;2023-03-01T12:36:43;8.70;;;4.88;;
45522;SDS011;31254;51.680;5.394;2023-03-01T12:42:11;10.27;;;5.05;;
45522;SDS011;31254;51.680;5.394;2023-03-01T12:47:47;9.93;;;4.43;;
45522;SDS011;31254;51.680;5.394;2023-03-01T12:50:26;8.52;;;4.63;;
45522;SDS011;31254;51.680;5.394;2023-03-01T12:53:03;7.95;;;4.88;;
45522;SDS011;31254;51.680;5.394;2023-03-01T12:55:37;6.50;;;4.03;;
45522;SDS011;31254;51.680;5.394;2023-03-01T13:06:52;9.95;;;5.13;;
45522;SDS011;31254;51.680;5.394;2023-03-01T13:09:29;9.63;;;5.50;;
45522;SDS011;31254;51.680;5.394;2023-03-01T13:17:53;8.18;;;5.00;;
45522;SDS011;31254;51.680;5.394;2023-03-01T13:31:02;9.07;;;6.00;;
45522;SDS011;31254;51.680;5.394;2023-03-01T13:36:01;10.05;;;5.55;;
45522;SDS011;31254;51.680;5.394;2023-03-01T13:41:10;10.88;;;5.55;;
45522;SDS011;31254;51.680;5.394;2023-03-01T13:43:38;8.60;;;4.88;;
45522;SDS011;31254;51.680;5.394;2023-03-01T13:46:17;6.85;;;4.60;;
45522;SDS011;31254;51.680;5.394;2023-03-01T13:48:51;8.93;;;5.22;;
45522;SDS011;31254;51.680;5.394;2023-03-01T13:51:28;10.35;;;5.13;;
45522;SDS011;31254;51.680;5.394;2023-03-01T13:54:05;8.25;;;4.35;;
45522;SDS011;31254;51.680;5.394;2023-03-01T13:56:37;10.73;;;4.80;;
45522;SDS011;31254;51.680;5.394;2023-03-01T13:59:14;8.77;;;5.15;;
45522;SDS011;31254;51.680;5.394;2023-03-01T14:01:43;9.07;;;4.72;;
45522;SDS011;31254;51.680;5.394;2023-03-01T14:04:31;12.73;;;5.13;;
45522;SDS011;31254;51.680;5.394;2023-03-01T14:07:25;10.63;;;5.97;;
45522;SDS011;31254;51.680;5.394;2023-03-01T14:10:16;12.38;;;4.95;;
45522;SDS011;31254;51.680;5.394;2023-03-01T14:12:55;8.35;;;5.20;;
45522;SDS011;31254;51.680;5.394;2023-03-01T14:16:15;9.48;;;3.88;;
45522;SDS011;31254;51.680;5.394;2023-03-01T14:21:46;9.07;;;5.28;;
45522;SDS011;31254;51.680;5.394;2023-03-01T14:24:18;9.95;;;5.55;;
45522;SDS011;31254;51.680;5.394;2023-03-01T14:26:49;10.57;;;6.43;;
45522;SDS011;31254;51.680;5.394;2023-03-01T14:32:30;8.00;;;4.72;;
45522;SDS011;31254;51.680;5.394;2023-03-01T14:34:59;15.38;;;4.50;;
45522;SDS011;31254;51.680;5.394;2023-03-01T14:39:57;6.55;;;3.78;;
45522;SDS011;31254;51.680;5.394;2023-03-01T14:42:30;8.07;;;4.85;;
45522;SDS011;31254;51.680;5.394;2023-03-01T14:45:06;8.98;;;4.18;;
45522;SDS011;31254;51.680;5.394;2023-03-01T14:47:52;7.20;;;4.72;;
45522;SDS011;31254;51.680;5.394;2023-03-01T14:50:34;7.15;;;4.53;;
45522;SDS011;31254;51.680;5.394;2023-03-01T14:53:55;8.63;;;4.45;;
45522;SDS011;31254;51.680;5.394;2023-03-01T14:56:18;8.18;;;4.85;;
45522;SDS011;31254;51.680;5.394;2023-03-01T14:58:52;7.88;;;4.68;;
45522;SDS011;31254;51.680;5.394;2023-03-01T15:01:45;7.93;;;5.13;;
45522;SDS011;31254;51.680;5.394;2023-03-01T15:04:27;10.23;;;4.88;;
45522;SDS011;31254;51.680;5.394;2023-03-01T15:07:00;8.18;;;4.85;;
45522;SDS011;31254;51.680;5.394;2023-03-01T15:09:34;9.82;;;4.88;;
45522;SDS011;31254;51.680;5.394;2023-03-01T15:15:19;9.40;;;5.30;;
45522;SDS011;31254;51.680;5.394;2023-03-01T15:17:52;9.07;;;5.32;;
45522;SDS011;31254;51.680;5.394;2023-03-01T15:20:23;8.95;;;4.80;;
45522;SDS011;31254;51.680;5.394;2023-03-01T15:22:57;6.72;;;3.38;;
45522;SDS011;31254;51.680;5.394;2023-03-01T15:25:29;7.95;;;5.03;;
45522;SDS011;31254;51.680;5.394;2023-03-01T15:27:58;6.82;;;4.28;;
45522;SDS011;31254;51.680;5.394;2023-03-01T15:30:33;9.23;;;4.90;;
45522;SDS011;31254;51.680;5.394;2023-03-01T15:35:56;9.13;;;5.18;;
45522;SDS011;31254;51.680;5.394;2023-03-01T15:40:55;9.02;;;4.03;;
45522;SDS011;31254;51.680;5.394;2023-03-01T15:43:39;15.98;;;5.43;;
45522;SDS011;31254;51.680;5.394;2023-03-01T15:46:20;7.60;;;4.47;;
45522;SDS011;31254;51.680;5.394;2023-03-01T15:48:53;5.78;;;3.30;;
45522;SDS011;31254;51.680;5.394;2023-03-01T15:51:36;7.88;;;4.95;;
45522;SDS011;31254;51.680;5.394;2023-03-01T15:54:05;7.90;;;4.88;;
45522;SDS011;31254;51.680;5.394;2023-03-01T15:56:40;7.43;;;4.50;;
45522;SDS011;31254;51.680;5.394;2023-03-01T15:59:10;9.05;;;4.95;;
45522;SDS011;31254;51.680;5.394;2023-03-01T16:01:40;7.55;;;4.53;;
45522;SDS011;31254;51.680;5.394;2023-03-01T16:04:11;9.63;;;4.93;;
45522;SDS011;31254;51.680;5.394;2023-03-01T16:06:42;8.48;;;4.43;;
45522;SDS011;31254;51.680;5.394;2023-03-01T16:09:09;8.82;;;4.32;;
45522;SDS011;31254;51.680;5.394;2023-03-01T16:11:35;10.77;;;4.85;;
45522;SDS011;31254;51.680;5.394;2023-03-01T16:14:06;7.40;;;4.60;;
45522;SDS011;31254;51.680;5.394;2023-03-01T16:16:36;6.50;;;3.90;;
45522;SDS011;31254;51.680;5.394;2023-03-01T16:19:05;8.68;;;5.40;;
45522;SDS011;31254;51.680;5.394;2023-03-01T16:21:36;15.35;;;5.45;;
45522;SDS011;31254;51.680;5.394;2023-03-01T16:24:16;9.43;;;5.38;;
45522;SDS011;31254;51.680;5.394;2023-03-01T16:26:43;8.95;;;5.47;;
45522;SDS011;31254;51.680;5.394;2023-03-01T16:29:09;11.98;;;5.35;;
45522;SDS011;31254;51.680;5.394;2023-03-01T16:31:36;7.80;;;4.28;;
45522;SDS011;31254;51.680;5.394;2023-03-01T16:34:03;7.78;;;5.10;;
45522;SDS011;31254;51.680;5.394;2023-03-01T16:36:30;9.90;;;5.72;;
45522;SDS011;31254;51.680;5.394;2023-03-01T16:38:58;8.38;;;4.75;;
45522;SDS011;31254;51.680;5.394;2023-03-01T16:41:36;8.45;;;4.82;;
45522;SDS011;31254;51.680;5.394;2023-03-01T16:44:05;10.75;;;4.80;;
45522;SDS011;31254;51.680;5.394;2023-03-01T16:46:42;9.20;;;4.97;;
45522;SDS011;31254;51.680;5.394;2023-03-01T16:49:26;6.75;;;4.68;;
45522;SDS011;31254;51.680;5.394;2023-03-01T16:51:54;12.05;;;5.13;;
45522;SDS011;31254;51.680;5.394;2023-03-01T16:54:22;13.32;;;5.80;;
45522;SDS011;31254;51.680;5.394;2023-03-01T16:56:49;9.75;;;5.10;;
45522;SDS011;31254;51.680;5.394;2023-03-01T16:59:17;14.73;;;6.53;;
45522;SDS011;31254;51.680;5.394;2023-03-01T17:01:45;11.50;;;5.53;;
45522;SDS011;31254;51.680;5.394;2023-03-01T17:04:15;7.73;;;4.77;;
45522;SDS011;31254;51.680;5.394;2023-03-01T17:06:43;8.65;;;5.32;;
45522;SDS011;31254;51.680;5.394;2023-03-01T17:09:15;7.50;;;4.70;;
45522;SDS011;31254;51.680;5.394;2023-03-01T17:11:44;8.97;;;5.27;;
45522;SDS011;31254;51.680;5.394;2023-03-01T17:14:10;6.45;;;4.70;;
45522;SDS011;31254;51.680;5.394;2023-03-01T17:17:03;10.67;;;5.30;;
45522;SDS011;31254;51.680;5.394;2023-03-01T17:19:30;14.07;;;5.53;;
45522;SDS011;31254;51.680;5.394;2023-03-01T17:21:58;7.57;;;5.07;;
45522;SDS011;31254;51.680;5.394;2023-03-01T17:24:26;13.07;;;5.53;;